createdAt,value
2023-02-12T00:00:04.224Z,17.60
2023-02-12T00:02:31.057Z,18.33
2023-02-12T00:04:57.924Z,19.85
2023-02-12T00:07:24.750Z,17.25
2023-02-12T00:09:51.559Z,15.85
2023-02-12T00:12:18.349Z,16.70
2023-02-12T00:14:45.284Z,15.23
2023-02-12T00:17:11.847Z,19.63
2023-02-12T00:19:38.584Z,13.45
2023-02-12T00:22:05.441Z,16.15
2023-02-12T00:24:32.426Z,15.82
2023-02-12T00:26:59.320Z,16.52
2023-02-12T00:29:26.021Z,14.00
2023-02-12T00:31:52.839Z,15.07
2023-02-12T00:34:19.724Z,14.82
2023-02-12T00:36:46.497Z,13.43
2023-02-12T00:39:13.188Z,22.77
2023-02-12T00:41:40.114Z,15.43
2023-02-12T00:44:06.786Z,17.77
2023-02-12T00:46:33.570Z,17.67
2023-02-12T00:49:00.252Z,16.65
2023-02-12T00:51:26.897Z,15.05
2023-02-12T00:53:53.730Z,15.15
2023-02-12T00:56:20.378Z,18.45
2023-02-12T00:58:47.098Z,13.20
2023-02-12T01:01:13.779Z,14.23
2023-02-12T01:03:40.700Z,13.95
2023-02-12T01:06:07.845Z,13.85
2023-02-12T01:08:34.531Z,15.98
2023-02-12T01:11:03.216Z,17.70
2023-02-12T01:13:31.710Z,13.48
2023-02-12T01:16:08.997Z,14.80
2023-02-12T01:18:37.354Z,16.58
2023-02-12T01:21:14.788Z,12.18
2023-02-12T01:23:42.666Z,15.32
2023-02-12T01:26:13.140Z,13.63
2023-02-12T01:28:42.103Z,14.15
2023-02-12T01:31:13.980Z,12.10
2023-02-12T01:33:41.267Z,11.43
2023-02-12T01:36:09.260Z,16.88
2023-02-12T01:38:36.207Z,14.55
2023-02-12T01:41:15.526Z,13.98
2023-02-12T01:43:42.666Z,13.85
2023-02-12T01:46:12.265Z,16.60
2023-02-12T01:48:42.778Z,13.63
2023-02-12T01:51:14.852Z,17.20
2023-02-12T01:53:47.137Z,14.98
2023-02-12T01:56:14.470Z,13.65
2023-02-12T01:58:43.439Z,14.25
2023-02-12T02:01:17.000Z,16.42
2023-02-12T02:03:46.934Z,15.52
2023-02-12T02:06:17.590Z,13.07
2023-02-12T02:08:44.427Z,13.85
2023-02-12T02:11:29.847Z,12.38
2023-02-12T02:14:15.417Z,14.65
2023-02-12T02:16:47.375Z,14.93
2023-02-12T02:19:28.528Z,16.95
2023-02-12T02:22:19.841Z,21.33
2023-02-12T02:25:24.687Z,18.05
2023-02-12T02:28:09.614Z,17.45
2023-02-12T02:30:58.181Z,13.00
2023-02-12T02:33:42.316Z,13.88
2023-02-12T02:36:14.237Z,11.85
2023-02-12T02:38:46.927Z,16.23
2023-02-12T02:41:30.686Z,16.20
2023-02-12T02:43:58.472Z,16.23
2023-02-12T02:46:31.285Z,15.10
2023-02-12T02:49:02.751Z,10.88
2023-02-12T02:51:33.397Z,14.23
2023-02-12T02:54:21.974Z,15.13
2023-02-12T02:56:51.597Z,13.70
2023-02-12T02:59:24.706Z,13.40
2023-02-12T03:02:24.649Z,18.33
2023-02-12T03:05:33.673Z,16.95
2023-02-12T03:08:15.108Z,15.10
2023-02-12T03:10:46.546Z,16.15
2023-02-12T03:13:19.596Z,17.05
2023-02-12T03:16:11.952Z,15.52
2023-02-12T03:18:46.967Z,16.13
2023-02-12T03:21:18.519Z,14.60
2023-02-12T03:23:58.414Z,15.07
2023-02-12T03:26:35.271Z,14.57
2023-02-12T03:31:44.105Z,15.80
2023-02-12T03:34:42.977Z,18.65
2023-02-12T03:37:33.896Z,16.88
2023-02-12T03:40:23.704Z,17.10
2023-02-12T03:43:06.475Z,13.75
2023-02-12T03:45:52.404Z,15.23
2023-02-12T03:48:34.889Z,17.50
2023-02-12T03:51:10.705Z,17.73
2023-02-12T03:53:37.653Z,13.70
2023-02-12T03:56:33.366Z,19.92
2023-02-12T03:59:00.115Z,14.57
2023-02-12T04:01:27.708Z,16.15
2023-02-12T04:03:54.620Z,19.08
2023-02-12T04:06:25.690Z,14.10
2023-02-12T04:08:55.059Z,16.63
2023-02-12T04:11:41.771Z,13.40
2023-02-12T04:14:15.270Z,15.65
2023-02-12T04:16:51.713Z,16.60
2023-02-12T04:19:55.591Z,17.42
2023-02-12T04:22:40.582Z,17.27
2023-02-12T04:25:29.647Z,15.63
2023-02-12T04:28:07.725Z,15.35
2023-02-12T04:30:41.932Z,16.73
2023-02-12T04:33:13.523Z,19.83
2023-02-12T04:36:02.282Z,15.43
2023-02-12T04:38:36.149Z,17.50
2023-02-12T04:41:06.918Z,17.40
2023-02-12T04:43:37.105Z,21.65
2023-02-12T04:46:05.849Z,13.27
2023-02-12T04:48:34.657Z,15.30
2023-02-12T04:51:01.454Z,20.45
2023-02-12T04:53:28.159Z,20.08
2023-02-12T04:55:55.841Z,18.92
2023-02-12T04:58:22.775Z,18.95
2023-02-12T05:00:49.352Z,15.43
2023-02-12T05:03:15.919Z,17.80
2023-02-12T05:05:42.651Z,18.65
2023-02-12T05:08:09.252Z,17.90
2023-02-12T05:10:36.084Z,21.02
2023-02-12T05:13:02.665Z,17.60
2023-02-12T05:15:29.469Z,14.07
2023-02-12T05:17:56.032Z,20.60
2023-02-12T05:20:22.738Z,16.10
2023-02-12T05:22:53.184Z,19.83
2023-02-12T05:25:20.168Z,15.13
2023-02-12T05:27:46.885Z,18.88
2023-02-12T05:30:14.164Z,22.17
2023-02-12T05:32:40.797Z,17.10
2023-02-12T05:35:07.939Z,16.80
2023-02-12T05:37:36.320Z,15.73
2023-02-12T05:40:07.190Z,20.50
2023-02-12T05:42:33.953Z,19.70
2023-02-12T05:45:00.615Z,17.83
2023-02-12T05:47:27.419Z,18.85
2023-02-12T05:49:54.113Z,24.77
2023-02-12T05:52:20.821Z,20.73
2023-02-12T05:54:50.328Z,22.42
2023-02-12T05:57:16.929Z,20.45
2023-02-12T05:59:43.580Z,22.30
2023-02-12T06:02:10.208Z,24.25
2023-02-12T06:04:36.767Z,22.70
2023-02-12T06:07:03.494Z,18.02
2023-02-12T06:09:30.176Z,17.02
2023-02-12T06:11:56.812Z,21.25
2023-02-12T06:14:23.475Z,18.83
2023-02-12T06:16:51.768Z,20.77
2023-02-12T06:19:19.992Z,24.15
2023-02-12T06:21:47.044Z,19.80
2023-02-12T06:24:15.967Z,24.35
2023-02-12T06:26:43.055Z,23.77
2023-02-12T06:29:10.019Z,22.95
2023-02-12T06:31:37.388Z,21.25
2023-02-12T06:34:06.918Z,21.27
2023-02-12T06:36:35.969Z,17.85
2023-02-12T06:39:04.240Z,19.60
2023-02-12T06:41:30.980Z,19.25
2023-02-12T06:43:57.906Z,19.33
2023-02-12T06:46:25.181Z,21.80
2023-02-12T06:48:56.432Z,16.73
2023-02-12T06:51:23.931Z,19.88
2023-02-12T06:53:52.395Z,21.30
2023-02-12T06:56:20.123Z,24.48
2023-02-12T06:58:51.922Z,21.92
2023-02-12T07:01:21.622Z,18.45
2023-02-12T07:03:57.348Z,24.83
2023-02-12T07:06:25.025Z,20.05
2023-02-12T07:08:51.895Z,17.27
2023-02-12T07:11:18.983Z,19.00
2023-02-12T07:13:46.004Z,18.30
2023-02-12T07:16:17.029Z,19.98
2023-02-12T07:18:45.594Z,15.88
2023-02-12T07:21:14.231Z,24.38
2023-02-12T07:23:41.509Z,22.08
2023-02-12T07:26:13.023Z,19.02
2023-02-12T07:28:40.751Z,20.90
2023-02-12T07:31:09.020Z,23.02
2023-02-12T07:33:37.041Z,18.33
2023-02-12T07:36:05.107Z,22.38
2023-02-12T07:38:32.228Z,19.63
2023-02-12T07:41:21.971Z,22.23
2023-02-12T07:43:53.337Z,19.42
2023-02-12T07:46:23.894Z,26.25
2023-02-12T07:48:51.647Z,22.48
2023-02-12T07:51:19.531Z,24.92
2023-02-12T07:53:46.385Z,24.92
2023-02-12T07:56:18.466Z,23.77
2023-02-12T07:58:46.664Z,20.48
2023-02-12T08:01:19.069Z,21.52
2023-02-12T08:03:47.215Z,22.63
2023-02-12T08:06:23.206Z,22.58
2023-02-12T08:08:59.110Z,21.17
2023-02-12T08:11:28.014Z,20.73
2023-02-12T08:13:55.354Z,20.27
2023-02-12T08:16:24.294Z,17.73
2023-02-12T08:18:51.458Z,18.13
2023-02-12T08:21:21.387Z,22.80
2023-02-12T08:23:50.706Z,28.10
2023-02-12T08:26:28.903Z,26.48
2023-02-12T08:29:02.549Z,22.17
2023-02-12T08:31:32.126Z,21.20
2023-02-12T08:34:00.058Z,22.40
2023-02-12T08:36:29.984Z,23.05
2023-02-12T08:39:00.618Z,25.98
2023-02-12T08:41:29.556Z,23.70
2023-02-12T08:43:58.729Z,26.42
2023-02-12T08:46:30.835Z,23.73
2023-02-12T08:49:01.018Z,23.95
2023-02-12T08:51:32.901Z,21.63
2023-02-12T08:54:02.114Z,28.83
2023-02-12T08:56:31.346Z,22.40
2023-02-12T08:58:58.912Z,23.30
2023-02-12T09:01:27.896Z,23.25
2023-02-12T09:03:54.658Z,22.30
2023-02-12T09:06:23.553Z,23.85
2023-02-12T09:08:51.026Z,24.00
2023-02-12T09:11:24.667Z,20.38
2023-02-12T09:13:51.644Z,19.33
2023-02-12T09:16:18.525Z,25.98
2023-02-12T09:18:45.452Z,21.95
2023-02-12T09:21:14.779Z,23.65
2023-02-12T09:23:41.569Z,23.90
2023-02-12T09:26:10.571Z,23.38
2023-02-12T09:28:38.994Z,27.15
2023-02-12T09:31:15.291Z,21.50
2023-02-12T09:33:43.078Z,22.85
2023-02-12T09:36:15.076Z,19.85
2023-02-12T09:38:42.972Z,22.67
2023-02-12T09:41:17.023Z,21.58
2023-02-12T09:44:11.560Z,23.08
2023-02-12T09:46:51.920Z,20.75
2023-02-12T09:49:40.816Z,20.67
2023-02-12T09:52:17.569Z,23.38
2023-02-12T09:57:31.523Z,19.02
2023-02-12T10:00:16.218Z,22.92
2023-02-12T10:02:42.925Z,22.75
2023-02-12T10:05:19.631Z,29.25
2023-02-12T10:08:07.298Z,23.55
2023-02-12T10:10:53.565Z,22.05
2023-02-12T10:13:38.475Z,23.95
2023-02-12T10:16:27.823Z,21.23
2023-02-12T10:19:06.758Z,24.02
2023-02-12T10:21:45.671Z,27.98
2023-02-12T10:24:41.506Z,26.13
2023-02-12T10:27:15.665Z,20.65
2023-02-12T10:29:45.076Z,21.70
2023-02-12T10:32:33.205Z,28.30
2023-02-12T10:34:59.980Z,25.30
2023-02-12T10:37:37.791Z,24.17
2023-02-12T10:40:16.486Z,23.17
2023-02-12T10:42:45.643Z,21.52
2023-02-12T10:45:18.062Z,22.25
2023-02-12T10:47:47.288Z,26.13
2023-02-12T10:50:17.647Z,27.52
2023-02-12T10:52:55.138Z,29.08
2023-02-12T10:55:29.601Z,25.13
2023-02-12T10:57:57.733Z,22.77
2023-02-12T11:00:33.166Z,25.80
2023-02-12T11:03:21.416Z,25.42
2023-02-12T11:05:48.543Z,23.13
2023-02-12T11:08:35.354Z,25.63
2023-02-12T11:11:06.105Z,21.40
2023-02-12T11:13:32.847Z,22.17
2023-02-12T11:16:01.301Z,23.90
2023-02-12T11:18:33.033Z,20.63
2023-02-12T11:21:02.861Z,22.50
2023-02-12T11:23:41.705Z,19.35
2023-02-12T11:26:20.876Z,21.58
2023-02-12T11:28:58.729Z,18.83
2023-02-12T11:31:37.026Z,24.65
2023-02-12T11:34:10.514Z,18.02
2023-02-12T11:36:49.103Z,21.35
2023-02-12T11:39:26.781Z,21.55
2023-02-12T11:42:22.496Z,20.65
2023-02-12T11:44:52.723Z,20.50
2023-02-12T11:47:26.833Z,24.23
2023-02-12T11:50:27.566Z,21.20
2023-02-12T11:52:59.626Z,17.60
2023-02-12T11:55:33.653Z,22.15
2023-02-12T11:58:13.933Z,16.60
2023-02-12T12:00:43.704Z,26.95
2023-02-12T12:03:28.299Z,15.85
2023-02-12T12:06:01.639Z,20.55
2023-02-12T12:08:36.900Z,16.67
2023-02-12T12:11:29.129Z,14.93
2023-02-12T12:14:09.910Z,14.13
2023-02-12T12:17:06.781Z,12.43
2023-02-12T12:19:59.644Z,18.10
2023-02-12T12:22:47.481Z,16.08
2023-02-12T12:25:28.118Z,11.68
2023-02-12T12:28:19.475Z,18.77
2023-02-12T12:31:07.549Z,13.45
2023-02-12T12:33:51.277Z,16.10
2023-02-12T12:36:56.558Z,16.30
2023-02-12T12:39:29.048Z,17.17
2023-02-12T12:42:20.693Z,14.43
2023-02-12T12:45:24.276Z,15.80
2023-02-12T12:47:53.596Z,15.27
2023-02-12T12:50:32.217Z,16.00
2023-02-12T12:53:02.584Z,18.05
2023-02-12T12:55:44.917Z,16.33
2023-02-12T12:58:17.597Z,16.60
2023-02-12T13:00:50.182Z,16.63
2023-02-12T13:03:50.311Z,16.98
2023-02-12T13:06:45.117Z,15.55
2023-02-12T13:09:11.936Z,14.68
2023-02-12T13:11:53.670Z,13.32
2023-02-12T13:14:27.740Z,19.13
2023-02-12T13:17:19.470Z,18.55
2023-02-12T13:19:49.412Z,15.88
2023-02-12T13:22:26.834Z,13.30
2023-02-12T13:25:01.538Z,15.57
2023-02-12T13:27:35.599Z,13.52
2023-02-12T13:30:27.851Z,11.90
2023-02-12T13:33:10.615Z,12.07
2023-02-12T13:35:43.389Z,11.13
2023-02-12T13:38:21.143Z,16.25
2023-02-12T13:40:49.808Z,15.07
2023-02-12T13:43:40.933Z,13.13
2023-02-12T13:46:21.052Z,16.83
2023-02-12T13:48:57.495Z,11.48
2023-02-12T13:51:33.122Z,14.32
2023-02-12T13:54:28.159Z,11.30
2023-02-12T13:57:00.385Z,13.68
2023-02-12T13:59:35.634Z,12.98
2023-02-12T14:02:26.195Z,14.57
2023-02-12T14:04:52.781Z,16.65
2023-02-12T14:07:21.559Z,14.88
2023-02-12T14:09:51.351Z,13.77
2023-02-12T14:12:43.105Z,16.15
2023-02-12T14:15:22.227Z,12.93
2023-02-12T14:18:08.091Z,19.92
2023-02-12T14:20:37.433Z,13.15
2023-02-12T14:23:24.347Z,15.85
2023-02-12T14:26:03.584Z,13.63
2023-02-12T14:28:42.496Z,14.85
2023-02-12T14:31:21.907Z,13.05
2023-02-12T14:34:08.910Z,11.43
2023-02-12T14:36:39.166Z,13.38
2023-02-12T14:39:29.968Z,12.13
2023-02-12T14:42:16.692Z,15.45
2023-02-12T14:44:55.879Z,14.85
2023-02-12T14:47:31.691Z,16.38
2023-02-12T14:50:38.982Z,13.90
2023-02-12T14:53:21.321Z,10.35
2023-02-12T14:55:49.629Z,12.30
2023-02-12T14:58:24.613Z,14.38
2023-02-12T15:00:56.320Z,14.48
2023-02-12T15:03:28.232Z,14.02
2023-02-12T15:05:55.427Z,15.18
2023-02-12T15:08:47.271Z,15.25
2023-02-12T15:11:21.483Z,12.88
2023-02-12T15:14:03.508Z,19.10
2023-02-12T15:17:00.254Z,12.85
2023-02-12T15:19:32.813Z,14.20
2023-02-12T15:21:59.845Z,17.63
2023-02-12T15:24:28.222Z,16.80
2023-02-12T15:26:58.089Z,17.25
2023-02-12T15:29:29.906Z,16.27
2023-02-12T15:32:06.531Z,22.17
2023-02-12T15:34:38.022Z,14.98
2023-02-12T15:37:07.622Z,16.85
2023-02-12T15:39:43.650Z,12.60
2023-02-12T15:42:29.037Z,15.17
2023-02-12T15:45:08.100Z,15.20
2023-02-12T15:47:34.784Z,15.50
2023-02-12T15:50:01.499Z,13.65
2023-02-12T15:52:35.718Z,14.48
2023-02-12T15:55:12.507Z,14.98
2023-02-12T16:00:10.214Z,14.63
2023-02-12T16:02:37.103Z,15.43
2023-02-12T16:05:05.890Z,12.40
2023-02-12T16:07:36.992Z,14.40
2023-02-12T16:10:05.320Z,12.93
2023-02-12T16:12:37.736Z,11.68
2023-02-12T16:15:05.497Z,13.10
2023-02-12T16:17:37.078Z,16.90
2023-02-12T16:20:25.651Z,13.25
2023-02-12T16:22:53.189Z,22.77
2023-02-12T16:25:24.596Z,18.40
2023-02-12T16:27:59.626Z,16.55
2023-02-12T16:30:29.520Z,15.20
2023-02-12T16:32:56.952Z,13.25
2023-02-12T16:35:29.796Z,12.00
2023-02-12T16:38:01.226Z,13.27
2023-02-12T16:40:34.029Z,13.98
2023-02-12T16:43:04.622Z,14.45
2023-02-12T16:45:37.115Z,14.35
2023-02-12T16:48:17.062Z,12.15
2023-02-12T16:50:48.037Z,11.02
2023-02-12T16:53:31.870Z,15.18
2023-02-12T16:55:59.752Z,10.48
2023-02-12T16:58:26.711Z,12.85
2023-02-12T17:00:57.343Z,11.35
2023-02-12T17:03:25.191Z,12.68
2023-02-12T17:05:52.601Z,12.70
2023-02-12T17:08:23.552Z,12.48
2023-02-12T17:10:50.609Z,17.83
2023-02-12T17:13:17.910Z,11.40
2023-02-12T17:15:55.480Z,12.40
2023-02-12T17:18:24.636Z,12.68
2023-02-12T17:21:05.006Z,11.70
2023-02-12T17:23:33.300Z,12.40
2023-02-12T17:26:00.138Z,14.57
2023-02-12T17:28:27.055Z,10.55
2023-02-12T17:30:54.282Z,13.05
2023-02-12T17:33:21.232Z,12.27
2023-02-12T17:35:47.937Z,10.57
2023-02-12T17:38:14.750Z,13.50
2023-02-12T17:40:41.547Z,12.73
2023-02-12T17:43:09.397Z,12.82
2023-02-12T17:45:40.948Z,11.20
2023-02-12T17:48:07.962Z,17.13
2023-02-12T17:50:34.587Z,18.92
2023-02-12T17:53:01.266Z,13.88
2023-02-12T17:55:28.001Z,13.57
2023-02-12T17:57:55.590Z,12.73
2023-02-12T18:00:23.405Z,16.27
2023-02-12T18:02:50.374Z,16.17
2023-02-12T18:05:17.286Z,14.05
2023-02-12T18:07:44.319Z,15.57
2023-02-12T18:10:11.752Z,20.77
2023-02-12T18:12:38.565Z,16.23
2023-02-12T18:15:08.008Z,16.30
2023-02-12T18:17:36.310Z,15.88
2023-02-12T18:20:03.848Z,13.93
2023-02-12T18:22:32.395Z,16.98
2023-02-12T18:24:59.034Z,15.25
2023-02-12T18:27:26.379Z,19.95
2023-02-12T18:29:53.189Z,18.05
2023-02-12T18:32:19.829Z,19.70
2023-02-12T18:34:46.620Z,19.08
2023-02-12T18:37:13.935Z,18.73
2023-02-12T18:39:41.042Z,23.85
2023-02-12T18:42:09.338Z,24.10
2023-02-12T18:44:36.100Z,22.75
2023-02-12T18:47:03.023Z,22.58
2023-02-12T18:49:29.920Z,22.48
2023-02-12T18:51:56.949Z,22.73
2023-02-12T18:54:23.697Z,20.45
2023-02-12T18:56:52.498Z,22.52
2023-02-12T18:59:20.362Z,29.20
2023-02-12T19:01:48.137Z,18.92
2023-02-12T19:04:16.305Z,22.65
2023-02-12T19:06:54.242Z,23.48
2023-02-12T19:09:24.358Z,25.70
2023-02-12T19:11:54.968Z,25.80
2023-02-12T19:14:23.942Z,25.80
2023-02-12T19:16:51.601Z,21.92
2023-02-12T19:19:22.319Z,25.58
2023-02-12T19:21:49.452Z,22.35
2023-02-12T19:24:16.924Z,27.08
2023-02-12T19:26:44.557Z,25.92
2023-02-12T19:29:12.552Z,24.02
2023-02-12T19:31:43.781Z,22.92
2023-02-12T19:34:18.011Z,18.98
2023-02-12T19:36:45.737Z,23.30
2023-02-12T19:39:18.999Z,20.45
2023-02-12T19:41:47.046Z,22.38
2023-02-12T19:44:19.619Z,23.05
2023-02-12T19:46:48.259Z,20.15
2023-02-12T19:49:18.125Z,19.75
2023-02-12T19:51:45.176Z,21.80
2023-02-12T19:54:13.628Z,23.70
2023-02-12T19:56:40.563Z,20.75
2023-02-12T19:59:07.547Z,18.92
2023-02-12T20:01:35.011Z,25.50
2023-02-12T20:04:03.366Z,24.08
2023-02-12T20:06:34.552Z,25.48
2023-02-12T20:09:01.991Z,22.30
2023-02-12T20:11:31.487Z,24.67
2023-02-12T20:13:58.609Z,24.67
2023-02-12T20:16:31.284Z,21.98
2023-02-12T20:19:01.640Z,22.58
2023-02-12T20:21:28.718Z,28.23
2023-02-12T20:23:56.460Z,28.17
2023-02-12T20:26:23.861Z,33.30
2023-02-12T20:28:50.803Z,31.20
2023-02-12T20:31:23.962Z,26.42
2023-02-12T20:34:01.864Z,22.10
2023-02-12T20:36:37.330Z,24.73
2023-02-12T20:39:06.513Z,24.05
2023-02-12T20:41:36.994Z,25.23
2023-02-12T20:44:05.756Z,23.00
2023-02-12T20:46:32.739Z,28.92
2023-02-12T20:48:59.507Z,25.88
2023-02-12T20:51:27.724Z,27.10
2023-02-12T20:53:55.573Z,19.70
2023-02-12T20:56:31.611Z,19.50
2023-02-12T20:58:59.050Z,21.38
2023-02-12T21:01:37.746Z,17.80
2023-02-12T21:04:13.359Z,15.15
2023-02-12T21:06:41.699Z,17.60
2023-02-12T21:09:10.412Z,16.90
2023-02-12T21:11:38.181Z,17.80
2023-02-12T21:14:21.442Z,18.85
2023-02-12T21:16:49.866Z,17.38
2023-02-12T21:19:17.944Z,18.58
2023-02-12T21:21:45.584Z,19.00
2023-02-12T21:24:18.694Z,20.73
2023-02-12T21:26:45.653Z,17.27
2023-02-12T21:29:12.286Z,18.05
2023-02-12T21:31:41.897Z,20.73
2023-02-12T21:34:12.851Z,17.33
2023-02-12T21:36:41.569Z,20.00
2023-02-12T21:39:12.749Z,18.25
2023-02-12T21:41:41.844Z,15.95
2023-02-12T21:44:13.576Z,20.98
2023-02-12T21:46:40.267Z,19.38
2023-02-12T21:49:07.718Z,20.30
2023-02-12T21:51:43.163Z,19.08
2023-02-12T21:54:15.673Z,17.65
2023-02-12T21:56:44.024Z,20.08
2023-02-12T21:59:10.895Z,20.90
2023-02-12T22:01:41.582Z,18.55
2023-02-12T22:04:08.567Z,18.00
2023-02-12T22:06:40.536Z,20.45
2023-02-12T22:09:08.818Z,19.38
2023-02-12T22:11:36.675Z,17.02
2023-02-12T22:14:04.539Z,18.80
2023-02-12T22:16:31.638Z,19.73
2023-02-12T22:19:00.539Z,18.25
2023-02-12T22:21:30.299Z,17.88
2023-02-12T22:23:57.659Z,17.05
2023-02-12T22:26:27.395Z,19.52
2023-02-12T22:28:59.609Z,22.42
2023-02-12T22:31:31.745Z,16.45
2023-02-12T22:34:02.823Z,17.73
2023-02-12T22:36:30.521Z,15.63
2023-02-12T22:38:59.563Z,18.10
2023-02-12T22:41:28.003Z,16.90
2023-02-12T22:43:55.119Z,18.48
2023-02-12T22:46:23.452Z,19.05
2023-02-12T22:48:50.097Z,18.20
2023-02-12T22:51:28.968Z,20.73
2023-02-12T22:53:56.578Z,13.57
2023-02-12T22:56:23.957Z,20.02
2023-02-12T22:58:55.848Z,17.13
2023-02-12T23:01:23.139Z,18.35
2023-02-12T23:03:50.520Z,16.05
2023-02-12T23:06:19.681Z,16.20
2023-02-12T23:08:50.808Z,15.48
2023-02-12T23:11:18.478Z,20.00
2023-02-12T23:13:45.346Z,15.15
2023-02-12T23:16:12.440Z,16.33
2023-02-12T23:18:39.045Z,18.52
2023-02-12T23:21:06.051Z,17.65
2023-02-12T23:23:32.729Z,19.88
2023-02-12T23:25:59.490Z,15.07
2023-02-12T23:28:26.519Z,16.75
2023-02-12T23:30:53.662Z,16.98
2023-02-12T23:33:20.536Z,15.65
2023-02-12T23:35:48.487Z,17.63
2023-02-12T23:38:16.151Z,17.52
2023-02-12T23:40:43.903Z,19.05
2023-02-12T23:43:10.884Z,15.85
2023-02-12T23:45:37.674Z,18.25
2023-02-12T23:48:04.655Z,17.38
2023-02-12T23:50:31.739Z,16.17
2023-02-12T23:52:59.227Z,18.92
2023-02-12T23:55:25.961Z,17.23
2023-02-12T23:57:52.668Z,17.88
